createdAt,value
2023-03-24T00:00:39.424Z,12.37
2023-03-24T00:03:08.910Z,12.30
2023-03-24T00:05:37.103Z,12.25
2023-03-24T00:08:10.401Z,12.19
2023-03-24T00:10:40.940Z,12.13
2023-03-24T00:13:09.482Z,12.09
2023-03-24T00:15:38.345Z,12.06
2023-03-24T00:18:10.982Z,12.04
2023-03-24T00:20:39.294Z,11.99
2023-03-24T00:23:07.865Z,11.96
2023-03-24T00:25:40.336Z,11.92
2023-03-24T00:28:11.519Z,11.90
2023-03-24T00:30:41.403Z,11.86
2023-03-24T00:33:09.909Z,11.84
2023-03-24T00:35:45.605Z,11.82
2023-03-24T00:38:15.381Z,11.79
2023-03-24T00:40:49.065Z,11.79
2023-03-24T00:43:18.006Z,11.78
2023-03-24T00:45:46.674Z,11.75
2023-03-24T00:48:20.407Z,11.72
2023-03-24T00:50:49.341Z,11.70
2023-03-24T00:53:18.566Z,11.69
2023-03-24T00:55:53.163Z,11.65
2023-03-24T00:58:22.070Z,11.62
2023-03-24T01:00:53.929Z,11.60
2023-03-24T01:03:27.678Z,11.58
2023-03-24T01:05:57.817Z,11.55
2023-03-24T01:08:26.155Z,11.52
2023-03-24T01:10:54.591Z,11.50
2023-03-24T01:13:28.904Z,11.47
2023-03-24T01:15:57.564Z,11.46
2023-03-24T01:18:25.636Z,11.44
2023-03-24T01:20:53.940Z,11.44
2023-03-24T01:23:23.862Z,11.42
2023-03-24T01:25:52.084Z,11.41
2023-03-24T01:28:24.961Z,11.40
2023-03-24T01:30:54.011Z,11.38
2023-03-24T01:33:22.314Z,11.37
2023-03-24T01:35:51.277Z,11.35
2023-03-24T01:38:20.200Z,11.33
2023-03-24T01:40:48.914Z,11.31
2023-03-24T01:43:27.671Z,11.31
2023-03-24T01:46:05.559Z,11.31
2023-03-24T01:48:52.305Z,11.30
2023-03-24T01:51:27.305Z,11.29
2023-03-24T01:54:18.100Z,11.28
2023-03-24T01:56:55.433Z,11.26
2023-03-24T01:59:28.728Z,11.24
2023-03-24T02:02:10.222Z,11.22
2023-03-24T02:04:56.079Z,11.21
2023-03-24T02:07:29.861Z,11.21
2023-03-24T02:10:17.723Z,11.21
2023-03-24T02:12:46.583Z,11.22
2023-03-24T02:15:17.991Z,11.23
2023-03-24T02:17:57.580Z,11.24
2023-03-24T02:20:44.339Z,11.24
2023-03-24T02:23:21.971Z,11.24
2023-03-24T02:26:07.712Z,11.25
2023-03-24T02:28:46.461Z,11.28
2023-03-24T02:31:24.432Z,11.31
2023-03-24T02:34:11.339Z,11.33
2023-03-24T02:36:55.475Z,11.34
2023-03-24T02:39:45.419Z,11.34
2023-03-24T02:42:32.161Z,11.33
2023-03-24T02:45:33.460Z,11.31
2023-03-24T02:48:44.103Z,11.28
2023-03-24T02:51:17.466Z,11.25
2023-03-24T02:53:54.680Z,11.22
2023-03-24T02:56:30.194Z,11.19
2023-03-24T02:59:03.929Z,11.16
2023-03-24T03:01:38.140Z,11.14
2023-03-24T03:05:06.431Z,11.11
2023-03-24T03:07:41.389Z,11.08
2023-03-24T03:10:15.958Z,11.06
2023-03-24T03:12:48.686Z,11.05
2023-03-24T03:15:23.273Z,11.02
2023-03-24T03:17:53.705Z,10.98
2023-03-24T03:20:25.052Z,10.95
2023-03-24T03:22:59.199Z,10.93
2023-03-24T03:25:29.764Z,10.90
2023-03-24T03:27:58.806Z,10.89
2023-03-24T03:30:33.935Z,10.87
2023-03-24T03:33:10.471Z,10.87
2023-03-24T03:35:42.550Z,10.87
2023-03-24T03:38:16.136Z,10.90
2023-03-24T03:40:59.502Z,10.91
2023-03-24T03:43:32.088Z,10.92
2023-03-24T03:46:01.272Z,10.93
2023-03-24T03:48:34.600Z,10.94
2023-03-24T03:51:12.417Z,10.94
2023-03-24T03:53:58.340Z,10.94
2023-03-24T03:56:31.801Z,10.93
2023-03-24T03:59:34.679Z,10.93
2023-03-24T04:02:37.341Z,10.92
2023-03-24T04:05:10.312Z,10.89
2023-03-24T04:07:48.900Z,10.86
2023-03-24T04:10:37.336Z,10.84
2023-03-24T04:13:26.553Z,10.83
2023-03-24T04:16:52.389Z,10.81
2023-03-24T04:19:37.817Z,10.80
2023-03-24T04:22:24.710Z,10.79
2023-03-24T04:25:02.612Z,10.79
2023-03-24T04:27:40.108Z,10.80
2023-03-24T04:30:23.894Z,10.82
2023-03-24T04:33:00.859Z,10.83
2023-03-24T04:35:44.501Z,10.85
2023-03-24T04:38:27.825Z,10.86
2023-03-24T04:41:08.030Z,10.87
2023-03-24T04:43:37.518Z,10.89
2023-03-24T04:46:07.173Z,10.91
2023-03-24T04:48:55.691Z,10.93
2023-03-24T04:51:35.538Z,10.94
2023-03-24T04:54:16.239Z,10.97
2023-03-24T04:56:54.399Z,11.00
2023-03-24T04:59:24.826Z,11.04
2023-03-24T05:01:52.995Z,11.04
2023-03-24T05:04:51.224Z,11.04
2023-03-24T05:07:24.286Z,11.03
2023-03-24T05:09:57.627Z,11.03
2023-03-24T05:12:27.674Z,11.03
2023-03-24T05:15:14.356Z,11.00
2023-03-24T05:17:42.813Z,10.97
2023-03-24T05:20:12.160Z,10.95
2023-03-24T05:22:43.707Z,10.94
2023-03-24T05:25:12.259Z,10.91
2023-03-24T05:27:40.479Z,10.90
2023-03-24T05:30:17.780Z,10.91
2023-03-24T05:32:47.314Z,10.93
2023-03-24T05:35:16.240Z,10.97
2023-03-24T05:37:44.777Z,11.03
2023-03-24T05:40:13.836Z,11.08
2023-03-24T05:42:50.568Z,11.14
2023-03-24T05:45:19.778Z,11.21
2023-03-24T05:47:48.844Z,11.28
2023-03-24T05:50:18.529Z,11.36
2023-03-24T05:52:48.186Z,11.41
2023-03-24T05:55:31.014Z,11.46
2023-03-24T05:58:08.621Z,11.51
2023-03-24T06:00:49.810Z,11.55
2023-03-24T06:03:25.443Z,11.59
2023-03-24T06:06:03.784Z,11.65
2023-03-24T06:08:36.086Z,11.69
2023-03-24T06:11:05.673Z,11.76
2023-03-24T06:13:35.283Z,11.86
2023-03-24T06:16:07.763Z,11.97
2023-03-24T06:18:42.781Z,12.05
2023-03-24T06:21:20.673Z,12.11
2023-03-24T06:23:53.524Z,12.14
2023-03-24T06:26:31.097Z,12.17
2023-03-24T06:29:02.272Z,12.19
2023-03-24T06:31:36.084Z,12.21
2023-03-24T06:34:06.938Z,12.23
2023-03-24T06:36:35.248Z,12.23
2023-03-24T06:39:05.880Z,12.25
2023-03-24T06:41:34.788Z,12.28
2023-03-24T06:44:09.954Z,12.30
2023-03-24T06:46:40.793Z,12.32
2023-03-24T06:49:09.264Z,12.34
2023-03-24T06:51:37.948Z,12.36
2023-03-24T06:54:06.460Z,12.38
2023-03-24T06:56:36.841Z,12.42
2023-03-24T06:59:05.016Z,12.45
2023-03-24T07:01:36.286Z,12.46
2023-03-24T07:04:25.935Z,12.49
2023-03-24T07:07:19.630Z,12.52
2023-03-24T07:10:10.587Z,12.58
2023-03-24T07:12:40.599Z,12.62
2023-03-24T07:15:09.534Z,12.66
2023-03-24T07:17:41.654Z,12.70
2023-03-24T07:20:28.444Z,12.72
2023-03-24T07:23:14.949Z,12.72
2023-03-24T07:26:01.771Z,12.73
2023-03-24T07:28:50.987Z,12.75
2023-03-24T07:31:58.887Z,12.76
2023-03-24T07:34:28.514Z,12.78
2023-03-24T07:36:56.849Z,12.81
2023-03-24T07:39:28.510Z,12.84
2023-03-24T07:41:57.137Z,12.87
2023-03-24T07:44:32.818Z,12.90
2023-03-24T07:47:05.643Z,12.93
2023-03-24T07:49:34.912Z,12.97
2023-03-24T07:52:06.783Z,13.01
2023-03-24T07:54:48.460Z,13.03
2023-03-24T07:57:35.438Z,13.04
2023-03-24T08:00:18.236Z,13.04
2023-03-24T08:02:57.194Z,13.06
2023-03-24T08:05:53.091Z,13.13
2023-03-24T08:08:38.947Z,13.20
2023-03-24T08:11:07.056Z,13.24
2023-03-24T08:13:36.134Z,13.27
2023-03-24T08:16:04.758Z,13.30
2023-03-24T08:18:35.116Z,13.33
2023-03-24T08:21:06.276Z,13.34
2023-03-24T08:23:36.703Z,13.34
2023-03-24T08:26:05.084Z,13.36
2023-03-24T08:28:35.224Z,13.39
2023-03-24T08:31:04.428Z,13.41
2023-03-24T08:33:35.078Z,13.44
2023-03-24T08:36:04.973Z,13.47
2023-03-24T08:38:33.490Z,13.51
2023-03-24T08:41:06.879Z,13.54
2023-03-24T08:43:37.629Z,13.62
2023-03-24T08:46:14.036Z,13.70
2023-03-24T08:48:43.978Z,13.78
2023-03-24T08:51:16.126Z,13.86
2023-03-24T08:53:46.276Z,13.91
2023-03-24T08:56:14.553Z,13.98
2023-03-24T08:58:42.786Z,14.05
2023-03-24T09:01:10.944Z,14.15
2023-03-24T09:03:40.260Z,14.26
2023-03-24T09:06:08.984Z,14.38
2023-03-24T09:08:37.783Z,14.53
2023-03-24T09:11:06.560Z,14.64
2023-03-24T09:13:35.817Z,14.70
2023-03-24T09:16:04.221Z,14.76
2023-03-24T09:18:38.548Z,14.83
2023-03-24T09:21:07.050Z,14.87
2023-03-24T09:23:35.613Z,14.89
2023-03-24T09:26:03.900Z,14.90
2023-03-24T09:28:32.575Z,14.92
2023-03-24T09:31:02.714Z,14.95
2023-03-24T09:33:31.971Z,15.02
2023-03-24T09:36:01.321Z,15.09
2023-03-24T09:38:33.758Z,15.20
2023-03-24T09:41:04.247Z,15.27
2023-03-24T09:43:42.433Z,15.36
2023-03-24T09:46:21.724Z,15.43
2023-03-24T09:48:52.177Z,15.49
2023-03-24T09:51:24.002Z,15.55
2023-03-24T09:53:57.547Z,15.63
2023-03-24T09:56:26.541Z,15.75
2023-03-24T09:59:05.654Z,15.89
2023-03-24T10:01:37.118Z,16.11
2023-03-24T10:04:05.557Z,16.42
2023-03-24T10:06:42.808Z,16.69
2023-03-24T10:09:31.654Z,16.90
2023-03-24T10:12:11.929Z,17.14
2023-03-24T10:15:27.153Z,17.27
2023-03-24T10:18:14.478Z,17.19
2023-03-24T10:21:07.566Z,17.10
2023-03-24T10:23:41.106Z,16.98
2023-03-24T10:26:28.433Z,16.87
2023-03-24T10:29:22.201Z,16.80
2023-03-24T10:31:58.165Z,16.78
2023-03-24T10:34:33.493Z,16.85
2023-03-24T10:37:05.349Z,16.96
2023-03-24T10:39:43.957Z,17.06
2023-03-24T10:42:26.749Z,17.16
2023-03-24T10:45:01.710Z,17.21
2023-03-24T10:47:34.461Z,17.26
2023-03-24T10:50:15.742Z,17.38
2023-03-24T10:52:53.416Z,17.56
2023-03-24T10:55:23.771Z,17.81
2023-03-24T10:57:56.931Z,18.12
2023-03-24T11:00:29.939Z,18.43
2023-03-24T11:03:01.830Z,18.67
2023-03-24T11:05:35.848Z,18.77
2023-03-24T11:08:42.872Z,18.84
2023-03-24T11:11:15.853Z,18.94
2023-03-24T11:13:44.475Z,18.96
2023-03-24T11:16:14.759Z,19.03
2023-03-24T11:19:01.265Z,19.23
2023-03-24T11:21:30.800Z,19.43
2023-03-24T11:24:00.390Z,19.49
2023-03-24T11:26:35.868Z,19.43
2023-03-24T11:29:20.615Z,19.28
2023-03-24T11:31:57.317Z,19.09
2023-03-24T11:34:38.793Z,19.02
2023-03-24T11:37:18.544Z,19.05
2023-03-24T11:39:47.587Z,19.08
2023-03-24T11:42:16.672Z,19.05
2023-03-24T11:44:50.226Z,19.00
2023-03-24T11:47:36.467Z,18.97
2023-03-24T11:50:10.490Z,19.01
2023-03-24T11:53:04.355Z,19.20
2023-03-24T11:55:39.362Z,19.47
2023-03-24T11:58:49.973Z,19.59
2023-03-24T12:03:33.185Z,19.69
2023-03-24T12:06:11.889Z,19.76
2023-03-24T12:08:43.360Z,19.95
2023-03-24T12:11:33.604Z,20.13
2023-03-24T12:14:01.983Z,20.21
2023-03-24T12:17:03.824Z,20.21
2023-03-24T12:20:12.554Z,20.20
2023-03-24T12:22:48.133Z,20.25
2023-03-24T12:25:35.352Z,20.21
2023-03-24T12:28:09.639Z,20.13
2023-03-24T12:30:59.678Z,20.00
2023-03-24T12:33:58.197Z,19.77
2023-03-24T12:36:34.270Z,19.53
2023-03-24T12:39:13.705Z,19.35
2023-03-24T12:42:03.195Z,19.17
2023-03-24T12:44:34.133Z,19.09
2023-03-24T12:47:29.922Z,19.10
2023-03-24T12:50:24.209Z,19.25
2023-03-24T12:55:51.404Z,19.63
2023-03-24T12:58:21.702Z,19.77
2023-03-24T13:00:53.478Z,19.78
2023-03-24T13:03:41.673Z,19.87
2023-03-24T13:06:49.975Z,19.93
2023-03-24T13:09:32.032Z,19.98
2023-03-24T13:12:18.908Z,20.07
2023-03-24T13:15:04.239Z,20.13
2023-03-24T13:17:45.208Z,20.11
2023-03-24T13:20:17.285Z,20.01
2023-03-24T13:22:47.173Z,19.88
2023-03-24T13:25:38.129Z,19.73
2023-03-24T13:28:09.949Z,19.61
2023-03-24T13:30:41.564Z,19.53
2023-03-24T13:33:16.866Z,19.48
2023-03-24T13:35:58.091Z,19.44
2023-03-24T13:38:48.757Z,19.43
2023-03-24T13:41:27.205Z,19.49
2023-03-24T13:44:01.822Z,19.54
2023-03-24T13:46:30.974Z,19.57
2023-03-24T13:49:00.549Z,19.56
2023-03-24T13:51:38.170Z,19.53
2023-03-24T13:54:17.605Z,19.47
2023-03-24T13:57:09.256Z,19.35
2023-03-24T14:00:08.551Z,19.27
2023-03-24T14:02:47.295Z,19.16
2023-03-24T14:05:52.081Z,19.08
2023-03-24T14:08:22.120Z,18.99
2023-03-24T14:10:50.773Z,18.93
2023-03-24T14:13:22.339Z,18.88
2023-03-24T14:15:55.834Z,18.82
2023-03-24T14:18:27.225Z,18.77
2023-03-24T14:21:02.528Z,18.74
2023-03-24T14:23:40.613Z,18.71
2023-03-24T14:26:23.320Z,18.69
2023-03-24T14:28:52.632Z,18.67
2023-03-24T14:31:33.669Z,18.66
2023-03-24T14:34:14.078Z,18.64
2023-03-24T14:36:43.563Z,18.62
2023-03-24T14:39:28.416Z,18.60
2023-03-24T14:41:59.077Z,18.59
2023-03-24T14:44:46.729Z,18.59
2023-03-24T14:47:36.059Z,18.58
2023-03-24T14:50:12.814Z,18.56
2023-03-24T14:52:43.069Z,18.53
2023-03-24T14:55:19.914Z,18.48
2023-03-24T14:57:53.181Z,18.42
2023-03-24T15:01:03.890Z,18.37
2023-03-24T15:04:07.484Z,18.31
2023-03-24T15:06:44.782Z,18.25
2023-03-24T15:09:14.286Z,18.22
2023-03-24T15:11:42.776Z,18.17
2023-03-24T15:14:17.911Z,18.14
2023-03-24T15:16:52.609Z,18.11
2023-03-24T15:19:27.487Z,18.08
2023-03-24T15:22:02.739Z,18.05
2023-03-24T15:24:40.627Z,18.01
2023-03-24T15:27:09.378Z,17.95
2023-03-24T15:29:40.366Z,17.92
2023-03-24T15:32:19.513Z,17.85
2023-03-24T15:34:56.493Z,17.82
2023-03-24T15:37:38.563Z,17.78
2023-03-24T15:40:31.592Z,17.74
2023-03-24T15:43:06.947Z,17.70
2023-03-24T15:45:51.013Z,17.66
2023-03-24T15:48:30.775Z,17.63
2023-03-24T15:51:03.743Z,17.60
2023-03-24T15:53:45.893Z,17.55
2023-03-24T15:56:19.358Z,17.52
2023-03-24T15:58:54.646Z,17.48
2023-03-24T16:01:31.734Z,17.46
2023-03-24T16:04:01.376Z,17.43
2023-03-24T16:06:35.594Z,17.39
2023-03-24T16:09:11.276Z,17.36
2023-03-24T16:11:41.875Z,17.33
2023-03-24T16:14:23.400Z,17.31
2023-03-24T16:17:00.588Z,17.27
2023-03-24T16:19:29.687Z,17.25
2023-03-24T16:21:57.991Z,17.21
2023-03-24T16:24:30.362Z,17.19
2023-03-24T16:26:58.499Z,17.16
2023-03-24T16:29:30.027Z,17.13
2023-03-24T16:31:59.001Z,17.10
2023-03-24T16:34:27.155Z,17.09
2023-03-24T16:36:57.466Z,17.06
2023-03-24T16:39:27.502Z,17.04
2023-03-24T16:42:01.743Z,17.02
2023-03-24T16:44:30.677Z,17.00
2023-03-24T16:46:58.783Z,16.97
2023-03-24T16:49:28.405Z,16.94
2023-03-24T16:51:57.380Z,16.92
2023-03-24T16:54:33.873Z,16.88
2023-03-24T16:57:02.051Z,16.85
2023-03-24T16:59:30.511Z,16.82
2023-03-24T17:02:03.249Z,16.77
2023-03-24T17:04:34.206Z,16.73
2023-03-24T17:07:05.101Z,16.68
2023-03-24T17:09:36.213Z,16.63
2023-03-24T17:12:04.879Z,16.58
2023-03-24T17:14:33.279Z,16.54
2023-03-24T17:17:04.649Z,16.52
2023-03-24T17:19:33.121Z,16.48
2023-03-24T17:22:05.938Z,16.45
2023-03-24T17:24:41.743Z,16.43
2023-03-24T17:27:14.950Z,16.42
2023-03-24T17:29:43.196Z,16.41
2023-03-24T17:32:12.133Z,16.40
2023-03-24T17:34:45.643Z,16.40
2023-03-24T17:37:14.587Z,16.38
2023-03-24T17:39:43.208Z,16.38
2023-03-24T17:42:14.662Z,16.36
2023-03-24T17:44:44.809Z,16.37
2023-03-24T17:47:12.824Z,16.37
2023-03-24T17:50:01.644Z,16.36
2023-03-24T17:52:41.139Z,16.36
2023-03-24T17:55:10.438Z,16.35
2023-03-24T17:57:38.771Z,16.34
2023-03-24T18:00:10.360Z,16.30
2023-03-24T18:02:39.448Z,16.27
2023-03-24T18:05:11.860Z,16.22
2023-03-24T18:07:40.827Z,16.17
2023-03-24T18:10:09.337Z,16.14
2023-03-24T18:12:38.522Z,16.09
2023-03-24T18:15:07.640Z,16.06
2023-03-24T18:17:36.483Z,16.02
2023-03-24T18:20:11.351Z,15.98
2023-03-24T18:22:41.063Z,15.97
2023-03-24T18:25:10.604Z,15.94
2023-03-24T18:27:45.861Z,15.91
2023-03-24T18:30:14.615Z,15.89
2023-03-24T18:32:43.074Z,15.87
2023-03-24T18:35:16.722Z,15.86
2023-03-24T18:37:45.276Z,15.83
2023-03-24T18:40:15.840Z,15.81
2023-03-24T18:42:45.334Z,15.79
2023-03-24T18:45:18.412Z,15.78
2023-03-24T18:47:48.091Z,15.74
2023-03-24T18:50:17.792Z,15.71
2023-03-24T18:52:50.623Z,15.70
2023-03-24T18:55:21.003Z,15.66
2023-03-24T18:57:49.524Z,15.65
2023-03-24T19:00:20.259Z,15.64
2023-03-24T19:02:52.462Z,15.62
2023-03-24T19:05:20.701Z,15.60
2023-03-24T19:07:52.242Z,15.57
2023-03-24T19:10:20.893Z,15.54
2023-03-24T19:12:50.664Z,15.52
2023-03-24T19:15:25.114Z,15.51
2023-03-24T19:17:53.332Z,15.47
2023-03-24T19:20:27.443Z,15.44
2023-03-24T19:22:59.789Z,15.41
2023-03-24T19:25:28.119Z,15.37
2023-03-24T19:27:57.235Z,15.33
2023-03-24T19:30:25.815Z,15.29
2023-03-24T19:32:55.131Z,15.25
2023-03-24T19:35:27.349Z,15.22
2023-03-24T19:37:56.718Z,15.17
2023-03-24T19:40:27.943Z,15.14
2023-03-24T19:42:55.981Z,15.11
2023-03-24T19:45:27.751Z,15.09
2023-03-24T19:47:56.725Z,15.08
2023-03-24T19:50:25.498Z,15.08
2023-03-24T19:52:54.133Z,15.08
2023-03-24T19:55:22.206Z,15.07
2023-03-24T19:57:50.288Z,15.06
2023-03-24T20:00:19.274Z,15.06
2023-03-24T20:02:48.295Z,15.05
2023-03-24T20:05:17.474Z,15.05
2023-03-24T20:07:48.027Z,15.06
2023-03-24T20:10:17.483Z,15.07
2023-03-24T20:12:45.743Z,15.07
2023-03-24T20:15:14.834Z,15.09
2023-03-24T20:17:42.967Z,15.11
2023-03-24T20:20:15.750Z,15.12
2023-03-24T20:22:49.379Z,15.14
2023-03-24T20:25:19.069Z,15.16
2023-03-24T20:27:48.042Z,15.17
2023-03-24T20:30:17.636Z,15.19
2023-03-24T20:32:48.031Z,15.19
2023-03-24T20:35:18.256Z,15.19
2023-03-24T20:37:46.995Z,15.18
2023-03-24T20:40:15.251Z,15.17
2023-03-24T20:42:44.147Z,15.15
2023-03-24T20:45:12.231Z,15.13
2023-03-24T20:47:44.365Z,15.13
2023-03-24T20:50:12.885Z,15.11
2023-03-24T20:52:47.491Z,15.10
2023-03-24T20:55:36.145Z,15.08
2023-03-24T20:58:09.322Z,15.06
2023-03-24T21:00:43.812Z,15.04
2023-03-24T21:03:13.011Z,15.02
2023-03-24T21:05:41.440Z,15.00
2023-03-24T21:08:09.554Z,15.00
2023-03-24T21:10:57.625Z,14.99
2023-03-24T21:13:36.966Z,14.99
2023-03-24T21:16:08.836Z,14.99
2023-03-24T21:18:44.071Z,15.00
2023-03-24T21:21:13.056Z,14.99
2023-03-24T21:23:42.388Z,14.99
2023-03-24T21:26:15.853Z,14.98
2023-03-24T21:28:44.813Z,14.98
2023-03-24T21:31:19.760Z,14.97
2023-03-24T21:33:48.817Z,14.96
2023-03-24T21:36:17.155Z,14.94
2023-03-24T21:38:49.971Z,14.92
2023-03-24T21:41:18.711Z,14.91
2023-03-24T21:43:47.001Z,14.90
2023-03-24T21:46:21.655Z,14.90
2023-03-24T21:48:52.367Z,14.92
2023-03-24T21:51:24.202Z,14.92
2023-03-24T21:53:55.822Z,14.92
2023-03-24T21:56:24.780Z,14.93
2023-03-24T21:58:55.981Z,14.93
2023-03-24T22:01:25.296Z,14.94
2023-03-24T22:03:58.757Z,14.94
2023-03-24T22:06:38.676Z,14.95
2023-03-24T22:09:06.869Z,14.97
2023-03-24T22:11:35.363Z,14.99
2023-03-24T22:14:10.527Z,15.00
2023-03-24T22:16:41.110Z,15.01
2023-03-24T22:19:09.914Z,15.02
2023-03-24T22:21:39.744Z,15.03
2023-03-24T22:24:08.642Z,15.03
2023-03-24T22:26:36.952Z,15.02
2023-03-24T22:29:06.189Z,15.03
2023-03-24T22:31:34.725Z,15.03
2023-03-24T22:34:02.667Z,15.03
2023-03-24T22:36:32.372Z,15.04
2023-03-24T22:39:00.652Z,15.03
2023-03-24T22:41:28.741Z,15.02
2023-03-24T22:43:57.173Z,15.02
2023-03-24T22:46:25.607Z,15.00
2023-03-24T22:48:54.696Z,15.01
2023-03-24T22:51:22.814Z,15.02
2023-03-24T22:53:52.635Z,15.03
2023-03-24T22:56:20.768Z,15.04
2023-03-24T22:58:49.167Z,15.05
2023-03-24T23:01:18.393Z,15.07
2023-03-24T23:03:46.780Z,15.09
2023-03-24T23:06:21.518Z,15.12
2023-03-24T23:08:53.634Z,15.14
2023-03-24T23:11:21.857Z,15.14
2023-03-24T23:14:08.225Z,15.15
2023-03-24T23:16:38.027Z,15.14
2023-03-24T23:19:12.355Z,15.14
2023-03-24T23:21:43.248Z,15.13
2023-03-24T23:24:11.268Z,15.12
2023-03-24T23:26:39.236Z,15.11
2023-03-24T23:29:07.712Z,15.09
2023-03-24T23:31:37.428Z,15.07
2023-03-24T23:34:07.630Z,15.05
2023-03-24T23:36:35.944Z,15.04
2023-03-24T23:39:05.960Z,15.03
2023-03-24T23:41:36.024Z,15.02
2023-03-24T23:44:04.417Z,15.02
2023-03-24T23:46:33.811Z,15.01
2023-03-24T23:49:02.096Z,15.02
2023-03-24T23:51:33.161Z,15.01
2023-03-24T23:54:01.166Z,15.02
2023-03-24T23:56:40.644Z,15.03
2023-03-24T23:59:09.945Z,15.04
